sensor_id;sensor_type;location;lat;lon;timestamp;P1;durP1;ratioP1;P2;durP2;ratioP2
2544;SDS011;36212;48.838;9.142;2023-04-03T00:00:16;5.50;;;3.75;;
2544;SDS011;36212;48.838;9.142;2023-04-03T00:02:48;4.40;;;4.10;;
2544;SDS011;36212;48.838;9.142;2023-04-03T00:05:21;5.03;;;4.40;;
2544;SDS011;36212;48.838;9.142;2023-04-03T00:07:53;4.53;;;4.10;;
2544;SDS011;36212;48.838;9.142;2023-04-03T00:10:25;3.92;;;3.70;;
2544;SDS011;36212;48.838;9.142;2023-04-03T00:12:57;4.35;;;3.95;;
2544;SDS011;36212;48.838;9.142;2023-04-03T00:15:30;3.30;;;3.10;;
2544;SDS011;36212;48.838;9.142;2023-04-03T00:18:03;4.95;;;3.90;;
2544;SDS011;36212;48.838;9.142;2023-04-03T00:20:36;4.15;;;3.88;;
2544;SDS011;36212;48.838;9.142;2023-04-03T00:23:09;4.90;;;4.40;;
2544;SDS011;36212;48.838;9.142;2023-04-03T00:25:42;4.88;;;4.22;;
2544;SDS011;36212;48.838;9.142;2023-04-03T00:28:14;4.45;;;4.15;;
2544;SDS011;36212;48.838;9.142;2023-04-03T00:30:48;4.28;;;3.97;;
2544;SDS011;36212;48.838;9.142;2023-04-03T00:33:21;4.70;;;4.30;;
2544;SDS011;36212;48.838;9.142;2023-04-03T00:35:54;4.00;;;3.75;;
2544;SDS011;36212;48.838;9.142;2023-04-03T00:38:26;4.35;;;3.95;;
2544;SDS011;36212;48.838;9.142;2023-04-03T00:40:59;4.18;;;3.83;;
2544;SDS011;36212;48.838;9.142;2023-04-03T00:43:31;5.65;;;3.78;;
2544;SDS011;36212;48.838;9.142;2023-04-03T00:46:04;4.13;;;3.83;;
2544;SDS011;36212;48.838;9.142;2023-04-03T00:48:40;4.47;;;4.10;;
2544;SDS011;36212;48.838;9.142;2023-04-03T00:51:22;4.85;;;4.15;;
2544;SDS011;36212;48.838;9.142;2023-04-03T00:53:58;4.20;;;3.90;;
2544;SDS011;36212;48.838;9.142;2023-04-03T00:56:35;4.63;;;4.32;;
2544;SDS011;36212;48.838;9.142;2023-04-03T00:59:13;4.75;;;4.35;;
2544;SDS011;36212;48.838;9.142;2023-04-03T01:01:56;3.42;;;3.22;;
2544;SDS011;36212;48.838;9.142;2023-04-03T01:04:32;3.78;;;3.50;;
2544;SDS011;36212;48.838;9.142;2023-04-03T01:07:21;4.53;;;4.13;;
2544;SDS011;36212;48.838;9.142;2023-04-03T01:10:00;4.30;;;4.00;;
2544;SDS011;36212;48.838;9.142;2023-04-03T01:12:38;4.40;;;4.10;;
2544;SDS011;36212;48.838;9.142;2023-04-03T01:15:20;4.47;;;4.18;;
2544;SDS011;36212;48.838;9.142;2023-04-03T01:17:56;4.30;;;4.00;;
2544;SDS011;36212;48.838;9.142;2023-04-03T01:26:16;4.80;;;4.57;;
2544;SDS011;36212;48.838;9.142;2023-04-03T01:28:49;4.25;;;3.95;;
2544;SDS011;36212;48.838;9.142;2023-04-03T01:31:28;4.00;;;3.70;;
2544;SDS011;36212;48.838;9.142;2023-04-03T01:34:21;4.60;;;4.30;;
2544;SDS011;36212;48.838;9.142;2023-04-03T01:36:54;4.20;;;4.00;;
2544;SDS011;36212;48.838;9.142;2023-04-03T01:39:27;5.32;;;4.55;;
2544;SDS011;36212;48.838;9.142;2023-04-03T01:41:59;5.75;;;4.20;;
2544;SDS011;36212;48.838;9.142;2023-04-03T01:44:31;4.60;;;4.10;;
2544;SDS011;36212;48.838;9.142;2023-04-03T01:47:05;4.15;;;3.88;;
2544;SDS011;36212;48.838;9.142;2023-04-03T01:49:38;4.32;;;4.05;;
2544;SDS011;36212;48.838;9.142;2023-04-03T01:52:10;4.50;;;4.20;;
2544;SDS011;36212;48.838;9.142;2023-04-03T01:54:42;5.32;;;4.18;;
2544;SDS011;36212;48.838;9.142;2023-04-03T01:57:14;4.47;;;4.18;;
2544;SDS011;36212;48.838;9.142;2023-04-03T01:59:47;4.97;;;4.25;;
2544;SDS011;36212;48.838;9.142;2023-04-03T02:02:19;3.95;;;3.65;;
2544;SDS011;36212;48.838;9.142;2023-04-03T02:04:51;4.75;;;4.10;;
2544;SDS011;36212;48.838;9.142;2023-04-03T02:07:24;4.68;;;4.35;;
2544;SDS011;36212;48.838;9.142;2023-04-03T02:09:57;4.40;;;4.03;;
2544;SDS011;36212;48.838;9.142;2023-04-03T02:12:29;4.40;;;4.10;;
2544;SDS011;36212;48.838;9.142;2023-04-03T02:15:01;3.95;;;3.75;;
2544;SDS011;36212;48.838;9.142;2023-04-03T02:17:34;4.45;;;4.15;;
2544;SDS011;36212;48.838;9.142;2023-04-03T02:20:07;4.68;;;4.38;;
2544;SDS011;36212;48.838;9.142;2023-04-03T02:22:40;4.93;;;4.45;;
2544;SDS011;36212;48.838;9.142;2023-04-03T02:25:12;8.63;;;4.63;;
2544;SDS011;36212;48.838;9.142;2023-04-03T02:27:44;4.85;;;4.30;;
2544;SDS011;36212;48.838;9.142;2023-04-03T02:30:17;4.53;;;4.10;;
2544;SDS011;36212;48.838;9.142;2023-04-03T02:32:49;5.60;;;4.88;;
2544;SDS011;36212;48.838;9.142;2023-04-03T02:35:21;4.78;;;4.38;;
2544;SDS011;36212;48.838;9.142;2023-04-03T02:37:54;4.90;;;4.50;;
2544;SDS011;36212;48.838;9.142;2023-04-03T02:40:26;6.30;;;5.80;;
2544;SDS011;36212;48.838;9.142;2023-04-03T02:42:58;4.68;;;4.25;;
2544;SDS011;36212;48.838;9.142;2023-04-03T02:45:30;4.22;;;3.92;;
2544;SDS011;36212;48.838;9.142;2023-04-03T02:48:02;4.13;;;3.88;;
2544;SDS011;36212;48.838;9.142;2023-04-03T02:50:35;4.55;;;4.25;;
2544;SDS011;36212;48.838;9.142;2023-04-03T02:53:07;4.03;;;3.70;;
2544;SDS011;36212;48.838;9.142;2023-04-03T02:55:39;3.85;;;3.60;;
2544;SDS011;36212;48.838;9.142;2023-04-03T02:58:12;4.63;;;4.32;;
2544;SDS011;36212;48.838;9.142;2023-04-03T03:00:44;4.03;;;3.83;;
2544;SDS011;36212;48.838;9.142;2023-04-03T03:03:16;4.70;;;4.40;;
2544;SDS011;36212;48.838;9.142;2023-04-03T03:05:48;4.20;;;3.90;;
2544;SDS011;36212;48.838;9.142;2023-04-03T03:08:32;4.63;;;4.32;;
2544;SDS011;36212;48.838;9.142;2023-04-03T03:11:05;4.30;;;4.00;;
2544;SDS011;36212;48.838;9.142;2023-04-03T03:13:38;4.47;;;4.18;;
2544;SDS011;36212;48.838;9.142;2023-04-03T03:16:10;3.53;;;3.33;;
2544;SDS011;36212;48.838;9.142;2023-04-03T03:18:42;3.88;;;3.58;;
2544;SDS011;36212;48.838;9.142;2023-04-03T03:21:15;4.20;;;3.90;;
2544;SDS011;36212;48.838;9.142;2023-04-03T03:23:47;5.07;;;4.40;;
2544;SDS011;36212;48.838;9.142;2023-04-03T03:26:20;3.90;;;3.60;;
2544;SDS011;36212;48.838;9.142;2023-04-03T03:28:52;4.47;;;4.18;;
2544;SDS011;36212;48.838;9.142;2023-04-03T03:31:24;4.30;;;3.92;;
2544;SDS011;36212;48.838;9.142;2023-04-03T03:33:56;4.00;;;3.70;;
2544;SDS011;36212;48.838;9.142;2023-04-03T03:36:28;4.40;;;4.10;;
2544;SDS011;36212;48.838;9.142;2023-04-03T03:39:01;5.40;;;4.35;;
2544;SDS011;36212;48.838;9.142;2023-04-03T03:41:33;4.40;;;4.07;;
2544;SDS011;36212;48.838;9.142;2023-04-03T03:44:05;5.85;;;5.35;;
2544;SDS011;36212;48.838;9.142;2023-04-03T03:46:37;4.85;;;4.55;;
2544;SDS011;36212;48.838;9.142;2023-04-03T03:49:09;5.60;;;5.20;;
2544;SDS011;36212;48.838;9.142;2023-04-03T03:51:42;4.70;;;4.50;;
2544;SDS011;36212;48.838;9.142;2023-04-03T03:54:14;3.63;;;3.42;;
2544;SDS011;36212;48.838;9.142;2023-04-03T03:56:46;4.15;;;3.80;;
2544;SDS011;36212;48.838;9.142;2023-04-03T03:59:18;4.63;;;4.22;;
2544;SDS011;36212;48.838;9.142;2023-04-03T04:01:51;4.32;;;4.03;;
2544;SDS011;36212;48.838;9.142;2023-04-03T04:04:23;6.28;;;4.30;;
2544;SDS011;36212;48.838;9.142;2023-04-03T04:06:55;4.43;;;4.03;;
2544;SDS011;36212;48.838;9.142;2023-04-03T04:09:27;4.35;;;4.05;;
2544;SDS011;36212;48.838;9.142;2023-04-03T04:11:59;4.20;;;4.00;;
2544;SDS011;36212;48.838;9.142;2023-04-03T04:14:31;5.93;;;4.00;;
2544;SDS011;36212;48.838;9.142;2023-04-03T04:17:03;5.57;;;4.55;;
2544;SDS011;36212;48.838;9.142;2023-04-03T04:19:36;4.47;;;4.25;;
2544;SDS011;36212;48.838;9.142;2023-04-03T04:22:08;4.55;;;4.22;;
2544;SDS011;36212;48.838;9.142;2023-04-03T04:24:40;4.78;;;4.43;;
2544;SDS011;36212;48.838;9.142;2023-04-03T04:27:12;4.32;;;4.10;;
2544;SDS011;36212;48.838;9.142;2023-04-03T04:29:46;6.90;;;4.47;;
2544;SDS011;36212;48.838;9.142;2023-04-03T04:32:18;4.45;;;4.15;;
2544;SDS011;36212;48.838;9.142;2023-04-03T04:34:50;4.95;;;4.55;;
2544;SDS011;36212;48.838;9.142;2023-04-03T04:37:22;4.82;;;4.47;;
2544;SDS011;36212;48.838;9.142;2023-04-03T04:39:54;4.97;;;4.57;;
2544;SDS011;36212;48.838;9.142;2023-04-03T04:42:26;4.20;;;3.90;;
2544;SDS011;36212;48.838;9.142;2023-04-03T04:44:58;4.35;;;4.10;;
2544;SDS011;36212;48.838;9.142;2023-04-03T04:47:30;4.60;;;4.20;;
2544;SDS011;36212;48.838;9.142;2023-04-03T04:50:03;4.40;;;4.00;;
2544;SDS011;36212;48.838;9.142;2023-04-03T04:52:36;4.07;;;3.78;;
2544;SDS011;36212;48.838;9.142;2023-04-03T04:55:08;4.45;;;4.15;;
2544;SDS011;36212;48.838;9.142;2023-04-03T04:57:41;4.05;;;3.75;;
2544;SDS011;36212;48.838;9.142;2023-04-03T05:00:13;4.72;;;4.43;;
2544;SDS011;36212;48.838;9.142;2023-04-03T05:02:46;3.50;;;3.30;;
2544;SDS011;36212;48.838;9.142;2023-04-03T05:05:18;5.15;;;4.05;;
2544;SDS011;36212;48.838;9.142;2023-04-03T05:07:52;4.70;;;4.30;;
2544;SDS011;36212;48.838;9.142;2023-04-03T05:10:24;4.65;;;4.25;;
2544;SDS011;36212;48.838;9.142;2023-04-03T05:12:56;4.30;;;4.00;;
2544;SDS011;36212;48.838;9.142;2023-04-03T05:15:29;4.50;;;4.05;;
2544;SDS011;36212;48.838;9.142;2023-04-03T05:18:01;4.28;;;4.07;;
2544;SDS011;36212;48.838;9.142;2023-04-03T05:20:35;3.88;;;3.58;;
2544;SDS011;36212;48.838;9.142;2023-04-03T05:23:09;4.35;;;4.05;;
2544;SDS011;36212;48.838;9.142;2023-04-03T05:25:42;4.50;;;4.20;;
2544;SDS011;36212;48.838;9.142;2023-04-03T05:28:17;4.20;;;3.90;;
2544;SDS011;36212;48.838;9.142;2023-04-03T05:30:53;4.40;;;4.10;;
2544;SDS011;36212;48.838;9.142;2023-04-03T05:33:27;4.45;;;4.15;;
2544;SDS011;36212;48.838;9.142;2023-04-03T05:36:03;7.88;;;4.40;;
2544;SDS011;36212;48.838;9.142;2023-04-03T05:38:37;4.65;;;4.35;;
2544;SDS011;36212;48.838;9.142;2023-04-03T05:41:10;4.28;;;4.07;;
2544;SDS011;36212;48.838;9.142;2023-04-03T05:43:43;4.45;;;4.15;;
2544;SDS011;36212;48.838;9.142;2023-04-03T05:46:20;4.55;;;4.25;;
2544;SDS011;36212;48.838;9.142;2023-04-03T05:48:53;4.80;;;4.28;;
2544;SDS011;36212;48.838;9.142;2023-04-03T05:51:29;4.10;;;3.80;;
2544;SDS011;36212;48.838;9.142;2023-04-03T05:54:08;5.30;;;4.75;;
2544;SDS011;36212;48.838;9.142;2023-04-03T05:56:51;4.78;;;4.38;;
2544;SDS011;36212;48.838;9.142;2023-04-03T05:59:23;3.92;;;3.63;;
2544;SDS011;36212;48.838;9.142;2023-04-03T06:01:56;4.68;;;4.28;;
2544;SDS011;36212;48.838;9.142;2023-04-03T06:04:28;3.60;;;3.40;;
2544;SDS011;36212;48.838;9.142;2023-04-03T06:07:01;4.20;;;3.92;;
2544;SDS011;36212;48.838;9.142;2023-04-03T06:09:34;4.78;;;4.35;;
2544;SDS011;36212;48.838;9.142;2023-04-03T06:12:06;4.85;;;4.35;;
2544;SDS011;36212;48.838;9.142;2023-04-03T06:14:39;6.43;;;3.97;;
2544;SDS011;36212;48.838;9.142;2023-04-03T06:17:12;4.15;;;3.75;;
2544;SDS011;36212;48.838;9.142;2023-04-03T06:19:46;4.75;;;4.00;;
2544;SDS011;36212;48.838;9.142;2023-04-03T06:22:18;4.60;;;4.25;;
2544;SDS011;36212;48.838;9.142;2023-04-03T06:24:51;4.30;;;3.90;;
2544;SDS011;36212;48.838;9.142;2023-04-03T06:27:23;4.18;;;3.88;;
2544;SDS011;36212;48.838;9.142;2023-04-03T06:29:55;4.15;;;3.85;;
2544;SDS011;36212;48.838;9.142;2023-04-03T06:32:27;4.70;;;3.88;;
2544;SDS011;36212;48.838;9.142;2023-04-03T06:34:59;4.05;;;3.65;;
2544;SDS011;36212;48.838;9.142;2023-04-03T06:37:32;3.58;;;3.28;;
2544;SDS011;36212;48.838;9.142;2023-04-03T06:40:04;5.22;;;3.90;;
2544;SDS011;36212;48.838;9.142;2023-04-03T06:42:48;4.38;;;4.07;;
2544;SDS011;36212;48.838;9.142;2023-04-03T06:45:20;4.40;;;4.00;;
2544;SDS011;36212;48.838;9.142;2023-04-03T06:47:55;4.82;;;4.47;;
2544;SDS011;36212;48.838;9.142;2023-04-03T06:50:27;5.13;;;4.63;;
2544;SDS011;36212;48.838;9.142;2023-04-03T06:53:00;4.68;;;4.32;;
2544;SDS011;36212;48.838;9.142;2023-04-03T06:55:33;4.07;;;3.72;;
2544;SDS011;36212;48.838;9.142;2023-04-03T06:58:07;4.32;;;4.00;;
2544;SDS011;36212;48.838;9.142;2023-04-03T07:00:41;4.72;;;4.35;;
2544;SDS011;36212;48.838;9.142;2023-04-03T07:03:13;5.22;;;4.28;;
2544;SDS011;36212;48.838;9.142;2023-04-03T07:05:46;4.75;;;4.22;;
2544;SDS011;36212;48.838;9.142;2023-04-03T07:08:18;4.40;;;4.00;;
2544;SDS011;36212;48.838;9.142;2023-04-03T07:10:50;5.20;;;4.28;;
2544;SDS011;36212;48.838;9.142;2023-04-03T07:13:23;4.60;;;4.20;;
2544;SDS011;36212;48.838;9.142;2023-04-03T07:15:55;4.65;;;4.35;;
2544;SDS011;36212;48.838;9.142;2023-04-03T07:18:28;4.70;;;4.30;;
2544;SDS011;36212;48.838;9.142;2023-04-03T07:21:02;4.35;;;4.03;;
2544;SDS011;36212;48.838;9.142;2023-04-03T07:23:35;7.82;;;4.60;;
2544;SDS011;36212;48.838;9.142;2023-04-03T07:26:09;4.50;;;4.20;;
2544;SDS011;36212;48.838;9.142;2023-04-03T07:28:41;4.60;;;4.13;;
2544;SDS011;36212;48.838;9.142;2023-04-03T07:31:15;6.28;;;4.30;;
2544;SDS011;36212;48.838;9.142;2023-04-03T07:33:48;4.18;;;3.88;;
2544;SDS011;36212;48.838;9.142;2023-04-03T07:36:21;5.50;;;4.45;;
2544;SDS011;36212;48.838;9.142;2023-04-03T07:38:54;4.65;;;4.35;;
2544;SDS011;36212;48.838;9.142;2023-04-03T07:41:26;4.47;;;4.10;;
2544;SDS011;36212;48.838;9.142;2023-04-03T07:44:00;4.18;;;3.88;;
2544;SDS011;36212;48.838;9.142;2023-04-03T07:46:32;5.45;;;4.45;;
2544;SDS011;36212;48.838;9.142;2023-04-03T07:49:05;4.57;;;3.85;;
2544;SDS011;36212;48.838;9.142;2023-04-03T07:51:38;3.75;;;3.55;;
2544;SDS011;36212;48.838;9.142;2023-04-03T07:54:11;4.95;;;3.92;;
2544;SDS011;36212;48.838;9.142;2023-04-03T07:56:44;4.00;;;3.80;;
2544;SDS011;36212;48.838;9.142;2023-04-03T07:59:16;6.30;;;4.07;;
2544;SDS011;36212;48.838;9.142;2023-04-03T08:01:48;3.97;;;3.67;;
2544;SDS011;36212;48.838;9.142;2023-04-03T08:04:21;3.92;;;3.40;;
2544;SDS011;36212;48.838;9.142;2023-04-03T08:06:53;5.47;;;4.43;;
2544;SDS011;36212;48.838;9.142;2023-04-03T08:09:25;4.57;;;4.18;;
2544;SDS011;36212;48.838;9.142;2023-04-03T08:11:58;3.72;;;3.47;;
2544;SDS011;36212;48.838;9.142;2023-04-03T08:14:31;4.43;;;3.78;;
2544;SDS011;36212;48.838;9.142;2023-04-03T08:17:06;3.67;;;3.35;;
2544;SDS011;36212;48.838;9.142;2023-04-03T08:19:42;3.60;;;3.30;;
2544;SDS011;36212;48.838;9.142;2023-04-03T08:22:15;3.80;;;3.50;;
2544;SDS011;36212;48.838;9.142;2023-04-03T08:24:47;6.88;;;3.85;;
2544;SDS011;36212;48.838;9.142;2023-04-03T08:27:30;3.45;;;3.22;;
2544;SDS011;36212;48.838;9.142;2023-04-03T08:30:04;3.65;;;3.35;;
2544;SDS011;36212;48.838;9.142;2023-04-03T08:32:38;3.80;;;3.50;;
2544;SDS011;36212;48.838;9.142;2023-04-03T08:35:14;4.07;;;3.67;;
2544;SDS011;36212;48.838;9.142;2023-04-03T08:37:47;3.60;;;3.40;;
2544;SDS011;36212;48.838;9.142;2023-04-03T08:40:19;4.20;;;3.90;;
2544;SDS011;36212;48.838;9.142;2023-04-03T08:45:51;4.03;;;3.58;;
2544;SDS011;36212;48.838;9.142;2023-04-03T08:48:39;3.60;;;3.30;;
2544;SDS011;36212;48.838;9.142;2023-04-03T08:51:15;3.88;;;3.65;;
2544;SDS011;36212;48.838;9.142;2023-04-03T08:53:57;4.60;;;4.20;;
2544;SDS011;36212;48.838;9.142;2023-04-03T08:56:36;3.78;;;3.47;;
2544;SDS011;36212;48.838;9.142;2023-04-03T08:59:12;6.63;;;4.45;;
2544;SDS011;36212;48.838;9.142;2023-04-03T09:01:56;4.32;;;4.03;;
2544;SDS011;36212;48.838;9.142;2023-04-03T09:04:51;4.25;;;3.95;;
2544;SDS011;36212;48.838;9.142;2023-04-03T09:07:28;5.72;;;4.32;;
2544;SDS011;36212;48.838;9.142;2023-04-03T09:10:13;4.20;;;3.75;;
2544;SDS011;36212;48.838;9.142;2023-04-03T09:12:59;4.45;;;4.05;;
2544;SDS011;36212;48.838;9.142;2023-04-03T09:15:58;3.42;;;3.13;;
2544;SDS011;36212;48.838;9.142;2023-04-03T09:18:48;4.00;;;3.67;;
2544;SDS011;36212;48.838;9.142;2023-04-03T09:21:45;5.20;;;3.35;;
2544;SDS011;36212;48.838;9.142;2023-04-03T09:24:17;4.45;;;4.15;;
2544;SDS011;36212;48.838;9.142;2023-04-03T09:29:40;4.97;;;3.67;;
2544;SDS011;36212;48.838;9.142;2023-04-03T09:35:04;4.20;;;3.85;;
2544;SDS011;36212;48.838;9.142;2023-04-03T09:44:59;4.15;;;3.85;;
2544;SDS011;36212;48.838;9.142;2023-04-03T09:47:36;5.03;;;3.20;;
2544;SDS011;36212;48.838;9.142;2023-04-03T09:52:51;4.78;;;3.30;;
2544;SDS011;36212;48.838;9.142;2023-04-03T09:55:24;4.18;;;3.88;;
2544;SDS011;36212;48.838;9.142;2023-04-03T09:58:02;4.50;;;3.17;;
2544;SDS011;36212;48.838;9.142;2023-04-03T10:00:58;4.15;;;3.83;;
2544;SDS011;36212;48.838;9.142;2023-04-03T10:03:33;3.70;;;3.40;;
2544;SDS011;36212;48.838;9.142;2023-04-03T10:06:21;3.92;;;3.47;;
2544;SDS011;36212;48.838;9.142;2023-04-03T10:08:59;3.28;;;3.08;;
2544;SDS011;36212;48.838;9.142;2023-04-03T10:12:04;3.55;;;3.30;;
2544;SDS011;36212;48.838;9.142;2023-04-03T10:20:44;3.53;;;3.30;;
2544;SDS011;36212;48.838;9.142;2023-04-03T10:23:24;3.88;;;3.20;;
2544;SDS011;36212;48.838;9.142;2023-04-03T10:26:45;3.45;;;3.15;;
2544;SDS011;36212;48.838;9.142;2023-04-03T10:29:52;3.55;;;3.35;;
2544;SDS011;36212;48.838;9.142;2023-04-03T10:36:14;3.40;;;3.20;;
2544;SDS011;36212;48.838;9.142;2023-04-03T10:42:47;4.15;;;3.78;;
2544;SDS011;36212;48.838;9.142;2023-04-03T10:51:23;3.58;;;3.30;;
2544;SDS011;36212;48.838;9.142;2023-04-03T10:54:24;3.45;;;3.15;;
2544;SDS011;36212;48.838;9.142;2023-04-03T10:57:08;4.10;;;3.80;;
2544;SDS011;36212;48.838;9.142;2023-04-03T10:59:55;3.85;;;3.47;;
2544;SDS011;36212;48.838;9.142;2023-04-03T11:02:57;3.78;;;3.47;;
2544;SDS011;36212;48.838;9.142;2023-04-03T11:05:49;10.27;;;5.10;;
2544;SDS011;36212;48.838;9.142;2023-04-03T11:08:32;3.30;;;3.10;;
2544;SDS011;36212;48.838;9.142;2023-04-03T11:11:27;3.65;;;3.35;;
2544;SDS011;36212;48.838;9.142;2023-04-03T11:14:09;3.03;;;2.83;;
2544;SDS011;36212;48.838;9.142;2023-04-03T11:23:21;4.30;;;4.00;;
2544;SDS011;36212;48.838;9.142;2023-04-03T11:26:11;3.20;;;3.00;;
2544;SDS011;36212;48.838;9.142;2023-04-03T11:28:53;2.60;;;2.40;;
2544;SDS011;36212;48.838;9.142;2023-04-03T11:31:57;3.53;;;3.33;;
2544;SDS011;36212;48.838;9.142;2023-04-03T11:35:07;2.90;;;2.70;;
2544;SDS011;36212;48.838;9.142;2023-04-03T11:37:43;2.80;;;2.60;;
2544;SDS011;36212;48.838;9.142;2023-04-03T11:40:31;2.80;;;2.70;;
2544;SDS011;36212;48.838;9.142;2023-04-03T11:43:07;5.10;;;2.95;;
2544;SDS011;36212;48.838;9.142;2023-04-03T11:45:59;3.13;;;2.90;;
2544;SDS011;36212;48.838;9.142;2023-04-03T12:01:08;5.60;;;2.83;;
2544;SDS011;36212;48.838;9.142;2023-04-03T12:04:06;4.32;;;2.85;;
2544;SDS011;36212;48.838;9.142;2023-04-03T12:06:49;3.30;;;2.92;;
2544;SDS011;36212;48.838;9.142;2023-04-03T12:12:32;5.43;;;2.80;;
2544;SDS011;36212;48.838;9.142;2023-04-03T12:15:41;2.70;;;2.53;;
2544;SDS011;36212;48.838;9.142;2023-04-03T12:19:24;3.05;;;2.40;;
2544;SDS011;36212;48.838;9.142;2023-04-03T12:24:38;2.90;;;2.70;;
2544;SDS011;36212;48.838;9.142;2023-04-03T12:27:21;3.65;;;2.92;;
2544;SDS011;36212;48.838;9.142;2023-04-03T12:30:06;2.63;;;2.50;;
2544;SDS011;36212;48.838;9.142;2023-04-03T12:36:06;3.65;;;2.65;;
2544;SDS011;36212;48.838;9.142;2023-04-03T12:45:41;3.85;;;3.00;;
2544;SDS011;36212;48.838;9.142;2023-04-03T12:48:24;2.88;;;2.30;;
2544;SDS011;36212;48.838;9.142;2023-04-03T12:51:00;3.25;;;2.97;;
2544;SDS011;36212;48.838;9.142;2023-04-03T12:53:35;3.38;;;2.85;;
2544;SDS011;36212;48.838;9.142;2023-04-03T12:56:27;2.53;;;2.33;;
2544;SDS011;36212;48.838;9.142;2023-04-03T12:59:14;3.05;;;2.85;;
2544;SDS011;36212;48.838;9.142;2023-04-03T13:01:58;3.05;;;2.83;;
2544;SDS011;36212;48.838;9.142;2023-04-03T13:04:45;3.35;;;3.05;;
2544;SDS011;36212;48.838;9.142;2023-04-03T13:07:26;3.88;;;3.17;;
2544;SDS011;36212;48.838;9.142;2023-04-03T13:15:26;3.72;;;2.95;;
2544;SDS011;36212;48.838;9.142;2023-04-03T13:21:30;2.90;;;2.70;;
2544;SDS011;36212;48.838;9.142;2023-04-03T13:24:05;5.53;;;3.15;;
2544;SDS011;36212;48.838;9.142;2023-04-03T13:26:46;3.17;;;2.97;;
2544;SDS011;36212;48.838;9.142;2023-04-03T13:29:28;2.90;;;2.60;;
2544;SDS011;36212;48.838;9.142;2023-04-03T13:32:06;3.40;;;3.00;;
2544;SDS011;36212;48.838;9.142;2023-04-03T13:34:51;2.50;;;2.40;;
2544;SDS011;36212;48.838;9.142;2023-04-03T13:40:09;4.05;;;3.05;;
2544;SDS011;36212;48.838;9.142;2023-04-03T13:42:43;3.30;;;2.70;;
2544;SDS011;36212;48.838;9.142;2023-04-03T13:45:36;3.50;;;3.20;;
2544;SDS011;36212;48.838;9.142;2023-04-03T13:48:18;3.08;;;2.70;;
2544;SDS011;36212;48.838;9.142;2023-04-03T13:50:59;3.25;;;2.70;;
2544;SDS011;36212;48.838;9.142;2023-04-03T13:56:38;3.25;;;2.63;;
2544;SDS011;36212;48.838;9.142;2023-04-03T14:02:09;2.90;;;2.78;;
2544;SDS011;36212;48.838;9.142;2023-04-03T14:05:03;3.22;;;2.90;;
2544;SDS011;36212;48.838;9.142;2023-04-03T14:07:38;2.75;;;2.55;;
2544;SDS011;36212;48.838;9.142;2023-04-03T14:10:10;2.88;;;2.67;;
2544;SDS011;36212;48.838;9.142;2023-04-03T14:12:43;2.72;;;2.50;;
2544;SDS011;36212;48.838;9.142;2023-04-03T14:15:18;3.35;;;2.67;;
2544;SDS011;36212;48.838;9.142;2023-04-03T14:17:58;2.80;;;2.60;;
2544;SDS011;36212;48.838;9.142;2023-04-03T14:20:33;3.00;;;2.80;;
2544;SDS011;36212;48.838;9.142;2023-04-03T14:23:06;3.00;;;2.80;;
2544;SDS011;36212;48.838;9.142;2023-04-03T14:25:39;3.28;;;2.50;;
2544;SDS011;36212;48.838;9.142;2023-04-03T14:28:17;2.60;;;2.50;;
2544;SDS011;36212;48.838;9.142;2023-04-03T14:30:52;3.25;;;3.03;;
2544;SDS011;36212;48.838;9.142;2023-04-03T14:33:25;2.80;;;2.60;;
2544;SDS011;36212;48.838;9.142;2023-04-03T14:36:01;2.60;;;2.40;;
2544;SDS011;36212;48.838;9.142;2023-04-03T14:38:44;2.92;;;2.60;;
2544;SDS011;36212;48.838;9.142;2023-04-03T14:41:19;3.00;;;2.80;;
2544;SDS011;36212;48.838;9.142;2023-04-03T14:43:55;2.65;;;2.45;;
2544;SDS011;36212;48.838;9.142;2023-04-03T14:46:38;5.22;;;2.85;;
2544;SDS011;36212;48.838;9.142;2023-04-03T14:49:27;3.25;;;2.95;;
2544;SDS011;36212;48.838;9.142;2023-04-03T14:52:01;4.65;;;3.03;;
2544;SDS011;36212;48.838;9.142;2023-04-03T14:54:33;3.00;;;2.80;;
2544;SDS011;36212;48.838;9.142;2023-04-03T14:57:08;3.40;;;3.10;;
2544;SDS011;36212;48.838;9.142;2023-04-03T14:59:44;4.35;;;2.80;;
2544;SDS011;36212;48.838;9.142;2023-04-03T15:05:07;3.47;;;2.60;;
2544;SDS011;36212;48.838;9.142;2023-04-03T15:07:42;2.95;;;2.42;;
2544;SDS011;36212;48.838;9.142;2023-04-03T15:10:25;3.22;;;3.00;;
2544;SDS011;36212;48.838;9.142;2023-04-03T15:13:01;2.97;;;2.78;;
2544;SDS011;36212;48.838;9.142;2023-04-03T15:15:34;3.17;;;2.97;;
2544;SDS011;36212;48.838;9.142;2023-04-03T15:18:10;4.28;;;3.10;;
2544;SDS011;36212;48.838;9.142;2023-04-03T15:20:54;3.10;;;2.70;;
2544;SDS011;36212;48.838;9.142;2023-04-03T15:23:27;3.05;;;2.83;;
2544;SDS011;36212;48.838;9.142;2023-04-03T15:26:01;2.70;;;2.55;;
2544;SDS011;36212;48.838;9.142;2023-04-03T15:28:36;2.83;;;2.50;;
2544;SDS011;36212;48.838;9.142;2023-04-03T15:31:12;2.90;;;2.70;;
2544;SDS011;36212;48.838;9.142;2023-04-03T15:33:44;3.20;;;2.80;;
2544;SDS011;36212;48.838;9.142;2023-04-03T15:36:17;3.70;;;3.08;;
2544;SDS011;36212;48.838;9.142;2023-04-03T15:38:53;3.65;;;3.35;;
2544;SDS011;36212;48.838;9.142;2023-04-03T15:41:25;3.10;;;2.80;;
2544;SDS011;36212;48.838;9.142;2023-04-03T15:43:58;2.80;;;2.60;;
2544;SDS011;36212;48.838;9.142;2023-04-03T15:46:30;3.60;;;3.25;;
2544;SDS011;36212;48.838;9.142;2023-04-03T15:49:02;3.20;;;2.90;;
2544;SDS011;36212;48.838;9.142;2023-04-03T15:51:36;3.20;;;3.00;;
2544;SDS011;36212;48.838;9.142;2023-04-03T15:54:08;5.35;;;2.80;;
2544;SDS011;36212;48.838;9.142;2023-04-03T15:56:43;3.17;;;2.80;;
2544;SDS011;36212;48.838;9.142;2023-04-03T15:59:16;3.25;;;3.05;;
2544;SDS011;36212;48.838;9.142;2023-04-03T16:01:49;2.90;;;2.70;;
2544;SDS011;36212;48.838;9.142;2023-04-03T16:04:23;2.85;;;2.65;;
2544;SDS011;36212;48.838;9.142;2023-04-03T16:06:55;3.55;;;2.88;;
2544;SDS011;36212;48.838;9.142;2023-04-03T16:09:35;3.08;;;2.58;;
2544;SDS011;36212;48.838;9.142;2023-04-03T16:12:07;3.97;;;2.75;;
2544;SDS011;36212;48.838;9.142;2023-04-03T16:14:40;4.00;;;3.10;;
2544;SDS011;36212;48.838;9.142;2023-04-03T16:17:12;3.35;;;2.85;;
2544;SDS011;36212;48.838;9.142;2023-04-03T16:19:44;3.10;;;2.90;;
2544;SDS011;36212;48.838;9.142;2023-04-03T16:22:17;2.88;;;2.70;;
2544;SDS011;36212;48.838;9.142;2023-04-03T16:24:50;3.20;;;3.00;;
2544;SDS011;36212;48.838;9.142;2023-04-03T16:27:23;2.88;;;2.67;;
2544;SDS011;36212;48.838;9.142;2023-04-03T16:30:00;3.03;;;2.83;;
2544;SDS011;36212;48.838;9.142;2023-04-03T16:32:35;3.50;;;3.15;;
2544;SDS011;36212;48.838;9.142;2023-04-03T16:35:09;3.40;;;3.20;;
2544;SDS011;36212;48.838;9.142;2023-04-03T16:37:42;4.18;;;3.00;;
2544;SDS011;36212;48.838;9.142;2023-04-03T16:40:14;3.30;;;3.00;;
2544;SDS011;36212;48.838;9.142;2023-04-03T16:42:47;2.85;;;2.65;;
2544;SDS011;36212;48.838;9.142;2023-04-03T16:45:20;3.60;;;3.35;;
2544;SDS011;36212;48.838;9.142;2023-04-03T16:47:52;3.10;;;2.85;;
2544;SDS011;36212;48.838;9.142;2023-04-03T16:50:25;2.90;;;2.70;;
2544;SDS011;36212;48.838;9.142;2023-04-03T16:52:57;2.80;;;2.60;;
2544;SDS011;36212;48.838;9.142;2023-04-03T16:55:30;3.20;;;2.97;;
2544;SDS011;36212;48.838;9.142;2023-04-03T16:58:02;3.30;;;3.10;;
2544;SDS011;36212;48.838;9.142;2023-04-03T17:00:35;3.20;;;3.00;;
2544;SDS011;36212;48.838;9.142;2023-04-03T17:03:07;4.40;;;3.72;;
2544;SDS011;36212;48.838;9.142;2023-04-03T17:05:40;3.40;;;3.10;;
2544;SDS011;36212;48.838;9.142;2023-04-03T17:08:17;8.52;;;3.50;;
2544;SDS011;36212;48.838;9.142;2023-04-03T17:10:49;4.78;;;3.47;;
2544;SDS011;36212;48.838;9.142;2023-04-03T17:13:25;3.40;;;3.10;;
2544;SDS011;36212;48.838;9.142;2023-04-03T17:16:04;3.60;;;3.38;;
2544;SDS011;36212;48.838;9.142;2023-04-03T17:18:43;3.13;;;2.92;;
2544;SDS011;36212;48.838;9.142;2023-04-03T17:21:17;3.40;;;3.10;;
2544;SDS011;36212;48.838;9.142;2023-04-03T17:23:55;3.38;;;3.10;;
2544;SDS011;36212;48.838;9.142;2023-04-03T17:26:34;3.72;;;3.38;;
2544;SDS011;36212;48.838;9.142;2023-04-03T17:29:11;3.55;;;3.25;;
2544;SDS011;36212;48.838;9.142;2023-04-03T17:31:45;3.25;;;2.95;;
2544;SDS011;36212;48.838;9.142;2023-04-03T17:34:17;4.00;;;3.70;;